Time;durP1;ratioP1;P1;durP2;ratioP2;P2;SDS_P1;SDS_P2;PMS_P1;PMS_P2;Temp;Humidity;BMP_temperature;BMP_pressure;BME280_temperature;BME280_humidity;BME280_pressure;Samples;Min_cycle;Max_cycle;Signal;HPM_P1;HPM_P2
2023/04/22 00:01:42;;;;;;;;;38.25;34.00;;;;;14.61;58.11;100248.53;5079494;28;45248;-76
2023/04/22 00:04:07;;;;;;;;;40.50;34.50;;;;;14.52;58.21;100235.38;5079701;28;45643;-76
2023/04/22 00:06:34;;;;;;;;;38.00;34.75;;;;;14.42;58.77;100227.00;5079574;28;45229;-76
2023/04/22 00:08:59;;;;;;;;;39.75;34.75;;;;;14.45;59.04;100239.13;5080596;28;45255;-76
2023/04/22 00:11:25;;;;;;;;;31.50;30.25;;;;;14.44;59.14;100250.84;5083103;28;45803;-76
2023/04/22 00:13:50;;;;;;;;;33.75;31.50;;;;;14.38;59.38;100240.00;5082928;28;45318;-76
2023/04/22 00:16:15;;;;;;;;;34.00;32.00;;;;;14.37;59.85;100243.69;5083195;28;45281;-76
2023/04/22 00:18:41;;;;;;;;;33.50;29.25;;;;;14.33;60.57;100236.28;5083085;28;45556;-76
2023/04/22 00:21:06;;;;;;;;;38.75;33.75;;;;;14.22;60.39;100214.53;5082942;28;45996;-76
2023/04/22 00:23:32;;;;;;;;;38.75;33.50;;;;;14.35;60.85;100227.03;5083100;28;45383;-76
2023/04/22 00:25:59;;;;;;;;;41.25;34.25;;;;;14.31;60.88;100228.47;5083225;28;45359;-76
2023/04/22 00:28:25;;;;;;;;;38.25;34.00;;;;;14.21;61.60;100212.91;5082679;28;45224;-76
2023/04/22 00:30:50;;;;;;;;;35.00;33.00;;;;;14.28;60.84;100234.28;5082581;28;45339;-75
2023/04/22 00:33:15;;;;;;;;;34.25;32.25;;;;;14.29;61.40;100233.22;5082837;28;45242;-76
2023/04/22 00:35:41;;;;;;;;;39.50;35.00;;;;;14.21;62.22;100220.91;5082861;28;45204;-76
2023/04/22 00:38:06;;;;;;;;;35.50;33.75;;;;;14.29;61.60;100227.88;5082846;28;45190;-76
2023/04/22 00:40:31;;;;;;;;;36.00;33.50;;;;;14.21;61.34;100212.06;5082608;28;45220;-76
2023/04/22 00:43:00;;;;;;;;;37.25;34.50;;;;;14.19;61.48;100209.59;5082557;28;45560;-76
2023/04/22 00:45:25;;;;;;;;;36.25;33.25;;;;;14.22;62.18;100219.06;5082887;28;45387;-76
2023/04/22 00:47:51;;;;;;;;;37.75;34.75;;;;;14.18;63.17;100210.66;5082192;28;45513;-76
2023/04/22 00:50:17;;;;;;;;;33.50;32.75;;;;;14.27;62.16;100225.41;5082296;28;45720;-76
2023/04/22 00:52:42;;;;;;;;;41.00;35.25;;;;;14.25;61.66;100213.31;5082548;28;45330;-76
2023/04/22 00:55:08;;;;;;;;;35.50;33.75;;;;;14.24;62.56;100217.00;5082757;28;45489;-76
2023/04/22 00:57:34;;;;;;;;;36.50;34.50;;;;;14.09;62.51;100195.88;5082347;28;45327;-76
2023/04/22 01:00:00;;;;;;;;;36.75;34.00;;;;;14.20;63.21;100205.09;5063989;28;46501;-76
2023/04/22 01:02:26;;;;;;;;;33.25;30.00;;;;;14.18;63.13;100202.63;5082439;28;45168;-76
2023/04/22 01:04:55;;;;;;;;;33.25;31.00;;;;;14.14;63.07;100193.41;5082637;28;45271;-76
2023/04/22 01:07:20;;;;;;;;;40.00;34.75;;;;;14.21;63.36;100199.53;5082057;28;45407;-76
2023/04/22 01:09:46;;;;;;;;;34.00;31.50;;;;;14.10;63.05;100176.97;5081734;28;46161;-76
2023/04/22 01:12:12;;;;;;;;;35.75;33.00;;;;;14.19;63.26;100195.44;5082311;28;45312;-75
2023/04/22 01:14:37;;;;;;;;;35.25;32.00;;;;;14.10;63.66;100178.84;5082014;28;45314;-76
2023/04/22 01:17:03;;;;;;;;;32.75;32.25;;;;;14.09;63.95;100178.00;5082106;28;45343;-75
2023/04/22 01:19:29;;;;;;;;;34.50;32.25;;;;;14.11;64.16;100177.78;5082032;28;46145;-76
2023/04/22 01:21:55;;;;;;;;;30.67;29.33;;;;;14.03;64.48;100162.81;5080981;28;45418;-76
2023/04/22 01:24:21;;;;;;;;;34.00;31.75;;;;;14.07;64.07;100165.91;5082324;28;45285;-76
2023/04/22 01:26:47;;;;;;;;;36.00;33.75;;;;;14.06;64.31;100181.09;5081898;28;45224;-76
2023/04/22 01:29:14;;;;;;;;;30.00;30.00;;;;;14.04;65.17;100177.84;5081694;28;46289;-76
2023/04/22 01:31:39;;;;;;;;;37.50;33.25;;;;;14.03;65.03;100180.72;5081558;28;45271;-75
2023/04/22 01:34:05;;;;;;;;;33.75;29.75;;;;;13.99;65.66;100159.75;5082007;28;45281;-76
2023/04/22 01:36:31;;;;;;;;;27.33;26.33;;;;;13.93;66.16;100157.09;5081661;28;45454;-76
2023/04/22 01:38:57;;;;;;;;;31.00;30.00;;;;;13.99;66.02;100173.13;5081856;28;46071;-76
2023/04/22 01:41:23;;;;;;;;;32.50;32.25;;;;;13.99;66.15;100172.28;5081756;28;45303;-76
2023/04/22 01:43:50;;;;;;;;;32.50;32.00;;;;;14.06;66.15;100177.59;5081781;28;45386;-76
2023/04/22 01:46:16;;;;;;;;;34.00;31.50;;;;;13.96;65.47;100156.69;5081584;28;45284;-76
2023/04/22 01:48:41;;;;;;;;;32.00;31.33;;;;;13.98;66.66;100165.31;5081503;28;45259;-76
2023/04/22 01:51:06;;;;;;;;;37.50;33.75;;;;;14.03;67.45;100170.81;5081494;28;45604;-75
2023/04/22 01:53:32;;;;;;;;;34.50;33.25;;;;;14.07;68.13;100163.22;5081838;28;45464;-76
2023/04/22 01:55:58;;;;;;;;;40.00;34.75;;;;;14.06;67.98;100158.88;5081553;28;45443;-76
2023/04/22 01:58:27;;;;;;;;;30.00;29.00;;;;;14.03;67.67;100140.63;5081250;28;45331;-76
2023/04/22 02:00:52;;;;;;;;;29.00;28.75;;;;;14.05;67.93;100125.19;5081415;28;45277;-75
2023/04/22 02:03:17;;;;;;;;;32.25;31.75;;;;;13.98;66.73;100118.03;5081483;28;45435;-76
2023/04/22 02:05:43;;;;;;;;;36.00;33.00;;;;;13.99;67.30;100119.69;5081384;28;45473;-76
2023/04/22 02:08:08;;;;;;;;;38.00;32.00;;;;;14.03;66.95;100125.41;5081241;28;45401;-76
2023/04/22 02:10:33;;;;;;;;;34.50;32.50;;;;;13.94;67.31;100111.47;5081294;28;45343;-75
2023/04/22 02:12:59;;;;;;;;;36.25;33.50;;;;;13.91;67.42;100108.44;5081235;28;45335;-76
2023/04/22 02:15:24;;;;;;;;;33.00;31.00;;;;;13.92;68.28;100113.53;5062967;28;46481;-76
2023/04/22 02:17:49;;;;;;;;;32.75;31.25;;;;;14.01;68.94;100114.94;5062430;28;48050;-76
2023/04/22 02:20:15;;;;;;;;;33.00;31.75;;;;;13.92;69.00;100089.47;5080844;28;45266;-76
2023/04/22 02:22:42;;;;;;;;;32.33;31.33;;;;;13.92;68.74;100094.81;5081262;28;45798;-75
2023/04/22 02:25:09;;;;;;;;;34.00;32.50;;;;;13.92;69.21;100086.81;5081013;28;45315;-76
2023/04/22 02:27:35;;;;;;;;;32.25;31.50;;;;;13.96;69.00;100106.75;5080905;28;46122;-76
2023/04/22 02:30:00;;;;;;;;;32.67;30.33;;;;;13.87;69.46;100105.34;5094694;27;45390;-76
2023/04/22 02:32:25;;;;;;;;;34.33;31.33;;;;;13.89;69.53;100120.13;5101215;27;45613;-76
2023/04/22 02:34:51;;;;;;;;;28.33;26.67;;;;;13.91;69.46;100130.59;5101422;27;45362;-76
2023/04/22 02:37:17;;;;;;;;;28.33;27.00;;;;;13.85;69.75;100108.22;5082808;27;48866;-76
2023/04/22 02:39:43;;;;;;;;;29.33;29.00;;;;;13.91;69.64;100100.41;5101323;27;45338;-76
2023/04/22 02:42:08;;;;;;;;;24.00;23.67;;;;;13.95;69.28;100096.28;5101457;27;45347;-75
2023/04/22 02:44:33;;;;;;;;;32.67;29.33;;;;;14.01;69.58;100103.44;5084846;27;45399;-76
2023/04/22 02:46:59;;;;;;;;;30.00;28.00;;;;;14.14;68.68;100116.75;5070183;27;45339;-75
2023/04/22 02:49:24;;;;;;;;;24.67;24.67;;;;;14.20;68.88;100122.25;5060501;28;45324;-76
2023/04/22 02:51:50;;;;;;;;;28.33;27.00;;;;;14.17;69.01;100104.78;5060481;28;45264;-76
2023/04/22 02:54:15;;;;;;;;;30.67;30.00;;;;;14.31;69.22;100118.88;5060329;28;45505;-76
2023/04/22 02:56:40;;;;;;;;;26.00;25.00;;;;;14.30;68.76;100117.25;5060101;28;46001;-76
2023/04/22 02:59:06;;;;;;;;;31.00;30.33;;;;;14.40;69.06;100119.47;5060170;28;45609;-76
2023/04/22 03:01:31;;;;;;;;;32.33;30.00;;;;;14.39;68.83;100107.13;5060535;28;45300;-77
2023/04/22 03:03:56;;;;;;;;;31.00;30.00;;;;;14.32;68.86;100103.69;5060200;28;45335;-76
2023/04/22 03:06:22;;;;;;;;;34.33;32.00;;;;;14.29;69.13;100106.78;5060055;28;46085;-76
2023/04/22 03:08:47;;;;;;;;;35.33;32.33;;;;;14.20;69.82;100106.22;5060164;28;45227;-76
2023/04/22 03:11:12;;;;;;;;;31.67;30.00;;;;;14.06;69.95;100092.91;5060264;28;45378;-76
2023/04/22 03:13:38;;;;;;;;;32.00;29.33;;;;;14.21;69.63;100108.69;5059873;28;45305;-76
2023/04/22 03:16:03;;;;;;;;;31.75;28.00;;;;;14.16;69.49;100097.81;5059849;28;45290;-76
2023/04/22 03:18:29;;;;;;;;;35.00;32.25;;;;;14.19;69.99;100100.03;5060056;28;45173;-76
2023/04/22 03:20:54;;;;;;;;;34.00;32.00;;;;;14.30;69.86;100089.72;5059895;28;45293;-76
2023/04/22 03:23:19;;;;;;;;;28.33;27.33;;;;;14.30;70.36;100090.53;5060106;28;45401;-76
2023/04/22 03:25:45;;;;;;;;;35.00;33.00;;;;;14.25;70.91;100056.44;5059933;28;45434;-76
2023/04/22 03:28:10;;;;;;;;;34.25;33.00;;;;;14.33;70.84;100058.03;5059728;28;45395;-76
2023/04/22 03:30:36;;;;;;;;;31.67;28.67;;;;;14.34;70.78;100048.97;5078874;28;45251;-76
2023/04/22 03:33:01;;;;;;;;;31.75;31.00;;;;;14.34;70.94;100030.25;5080143;28;45402;-76
2023/04/22 03:35:26;;;;;;;;;31.00;28.67;;;;;14.33;70.25;100020.59;5079917;27;45315;-76
2023/04/22 03:37:52;;;;;;;;;33.33;32.00;;;;;14.52;70.30;100032.19;5061718;28;45324;-76
2023/04/22 03:40:18;;;;;;;;;35.33;32.33;;;;;14.61;70.34;100042.63;5080119;28;45458;-76
2023/04/22 03:42:43;;;;;;;;;32.00;29.33;;;;;14.63;70.15;100041.34;5079803;28;45343;-76
2023/04/22 03:45:09;;;;;;;;;37.67;33.00;;;;;14.64;70.70;100036.84;5078901;28;45267;-76
2023/04/22 03:47:34;;;;;;;;;31.25;31.00;;;;;14.70;70.80;100029.78;5095082;27;45926;-76
2023/04/22 03:50:00;;;;;;;;;35.33;32.33;;;;;14.62;71.11;100012.97;5100474;27;45345;-76
2023/04/22 03:52:25;;;;;;;;;30.75;30.50;;;;;14.72;71.22;100012.47;5100105;27;45258;-76
2023/04/22 03:54:51;;;;;;;;;28.33;28.00;;;;;14.69;70.97;100006.75;5100093;27;45279;-76
2023/04/22 03:57:16;;;;;;;;;38.00;34.00;;;;;14.81;71.13;100030.97;5100150;27;45327;-75
2023/04/22 03:59:41;;;;;;;;;39.00;34.00;;;;;14.79;71.08;100027.69;5099983;27;45315;-76
2023/04/22 04:02:07;;;;;;;;;30.67;30.33;;;;;14.70;70.62;100022.56;5100246;27;45408;-76
2023/04/22 04:04:33;;;;;;;;;39.50;33.75;;;;;14.77;70.87;100025.19;5081528;27;48107;-76
2023/04/22 04:06:59;;;;;;;;;38.75;32.75;;;;;14.88;71.16;100026.38;5081679;27;45327;-76
2023/04/22 04:09:24;;;;;;;;;36.75;31.75;;;;;14.90;71.50;100002.88;5100269;27;45323;-76
2023/04/22 04:11:49;;;;;;;;;38.50;33.00;;;;;14.93;70.98;100015.00;5100089;27;45676;-75
2023/04/22 04:14:15;;;;;;;;;32.00;29.67;;;;;14.99;71.05;100022.13;5099886;27;45319;-76
2023/04/22 04:16:40;;;;;;;;;36.00;31.33;;;;;15.01;71.36;100025.41;5099754;27;45395;-76
2023/04/22 04:19:05;;;;;;;;;27.50;27.50;;;;;15.06;70.65;100035.44;5100214;27;45813;-76
2023/04/22 04:21:32;;;;;;;;;38.00;34.33;;;;;15.11;70.99;100016.84;5099719;27;45422;-76
2023/04/22 04:23:57;;;;;;;;;34.67;32.33;;;;;15.12;70.94;99997.09;5099877;27;45424;-76
2023/04/22 04:26:23;;;;;;;;;31.67;31.00;;;;;15.13;70.92;100001.41;5099816;27;45323;-76
2023/04/22 04:28:49;;;;;;;;;32.00;31.00;;;;;15.07;70.38;100000.44;5095159;27;45342;-76
2023/04/22 04:31:14;;;;;;;;;35.00;32.33;;;;;15.12;70.75;99995.22;5078965;28;45520;-76
2023/04/22 04:33:40;;;;;;;;;41.75;35.75;;;;;15.21;71.28;99977.03;5079270;28;45343;-76
2023/04/22 04:36:07;;;;;;;;;33.50;32.00;;;;;15.16;70.98;99958.13;5079004;28;45197;-76
2023/04/22 04:38:33;;;;;;;;;36.67;33.00;;;;;15.21;71.12;99952.13;5079329;28;45344;-76
2023/04/22 04:40:58;;;;;;;;;38.00;33.25;;;;;15.20;72.10;99932.56;5078947;28;45315;-78
2023/04/22 04:43:24;;;;;;;;;38.75;34.50;;;;;15.36;72.68;99941.81;5078951;28;46269;-77
2023/04/22 04:45:50;;;;;;;;;40.25;34.75;;;;;15.31;73.04;99938.19;5060597;28;45316;-77
2023/04/22 04:48:18;;;;;;;;;38.75;35.25;;;;;15.43;74.11;99943.59;5079337;28;45397;-75
2023/04/22 04:50:44;;;;;;;;;39.00;33.25;;;;;15.28;72.09;99944.81;5078835;28;45438;-76
2023/04/22 04:53:10;;;;;;;;;36.25;32.25;;;;;15.39;73.41;99948.59;5078815;28;45393;-75
2023/04/22 04:55:36;;;;;;;;;34.25;32.25;;;;;15.20;73.53;99963.88;5062553;28;45355;-76
2023/04/22 04:58:02;;;;;;;;;37.75;34.50;;;;;15.31;73.48;99997.09;5064099;28;45301;-75
2023/04/22 05:00:27;;;;;;;;;35.00;33.33;;;;;15.33;75.92;99985.13;5082374;28;45273;-76
2023/04/22 05:02:53;;;;;;;;;33.00;32.00;;;;;15.29;76.53;99967.84;5082341;28;46255;-76
2023/04/22 05:05:18;;;;;;;;;37.00;32.33;;;;;15.35;76.46;99985.72;5082150;28;45293;-75
2023/04/22 05:07:43;;;;;;;;;39.00;34.25;;;;;15.41;74.88;100024.16;5064277;28;45334;-75
2023/04/22 05:10:09;;;;;;;;;39.33;35.00;;;;;15.38;76.28;100052.19;5080893;28;45888;-75
2023/04/22 05:12:35;;;;;;;;;34.67;33.00;;;;;15.36;78.04;100019.47;5063224;28;48247;-74
2023/04/22 05:15:00;;;;;;;;;38.50;34.00;;;;;15.41;80.43;99992.00;5063678;28;45435;-74
2023/04/22 05:17:26;;;;;;;;;43.50;37.00;;;;;15.49;78.11;100029.22;5063986;28;45279;-74
2023/04/22 05:19:51;;;;;;;;;37.25;34.50;;;;;15.39;80.13;99999.47;5082264;28;45317;-73
2023/04/22 05:22:17;;;;;;;;;39.25;34.25;;;;;15.51;81.25;100011.03;5081904;28;45363;-74
2023/04/22 05:24:42;;;;;;;;;39.00;34.00;;;;;15.52;81.82;100012.69;5075382;28;45360;-74
2023/04/22 05:27:08;;;;;;;;;39.00;33.25;;;;;15.46;82.48;99996.69;5072560;28;45389;-74
2023/04/22 05:29:33;;;;;;;;;41.25;36.00;;;;;15.56;83.49;99999.66;5073958;27;46439;-73
2023/04/22 05:31:59;;;;;;;;;44.50;37.00;;;;;15.59;83.48;99991.19;5084790;27;46187;-74
2023/04/22 05:34:24;;;;;;;;;42.00;36.75;;;;;15.51;83.83;99976.22;5081946;28;45356;-74
2023/04/22 05:36:50;;;;;;;;;37.00;34.25;;;;;15.67;84.61;99992.72;5081699;28;45527;-75
2023/04/22 05:39:15;;;;;;;;;45.75;37.50;;;;;15.52;83.99;99971.69;5081877;28;45360;-78
2023/04/22 05:41:40;;;;;;;;;45.75;39.75;;;;;15.69;85.21;99997.88;5081726;28;46131;-76
2023/04/22 05:44:06;;;;;;;;;44.75;36.00;;;;;15.70;85.05;100000.31;5081709;28;45503;-76
2023/04/22 05:46:32;;;;;;;;;43.50;37.00;;;;;15.58;85.51;99967.31;5081635;28;45265;-75
2023/04/22 05:48:57;;;;;;;;;42.75;35.75;;;;;15.63;86.10;99976.28;5081452;28;45445;-76
2023/04/22 05:51:23;;;;;;;;;45.25;37.00;;;;;15.80;85.61;100005.13;5081543;28;45264;-75
2023/04/22 05:53:49;;;;;;;;;44.75;37.00;;;;;15.84;84.34;100016.22;5081684;28;45365;-75
2023/04/22 05:56:14;;;;;;;;;44.75;36.50;;;;;15.59;85.91;99987.69;5081683;28;45537;-75
2023/04/22 05:58:39;;;;;;;;;44.25;36.75;;;;;15.77;85.79;99976.94;5081369;28;45546;-75
2023/04/22 06:01:05;;;;;;;;;46.75;38.50;;;;;15.83;86.56;100011.91;5063252;28;48344;-75
2023/04/22 06:03:30;;;;;;;;;47.00;38.50;;;;;15.83;85.82;100027.97;5081482;28;45398;-76
2023/04/22 06:05:56;;;;;;;;;39.25;35.25;;;;;15.87;86.09;100029.16;5081449;28;45299;-76
2023/04/22 06:08:21;;;;;;;;;47.50;40.00;;;;;15.77;86.82;99998.34;5081123;28;45318;-79
2023/04/22 06:10:46;;;;;;;;;45.00;37.75;;;;;15.83;88.10;99990.47;5081600;28;45378;-77
2023/04/22 06:13:11;;;;;;;;;44.00;38.25;;;;;15.84;86.93;100008.16;5083075;28;45301;-76
2023/04/22 06:15:37;;;;;;;;;38.25;34.25;;;;;15.94;87.85;100024.50;5083022;28;45260;-74
2023/04/22 06:18:02;;;;;;;;;44.50;37.75;;;;;15.89;88.82;100027.03;5081199;28;45283;-74
2023/04/22 06:20:28;;;;;;;;;46.75;39.75;;;;;15.84;89.87;100024.25;5081043;28;45366;-74
2023/04/22 06:22:53;;;;;;;;;41.75;36.00;;;;;15.89;90.42;100021.69;5081181;28;45297;-74
2023/04/22 06:25:18;;;;;;;;;40.50;36.00;;;;;15.96;90.17;100035.88;5062877;28;45316;-74
2023/04/22 06:27:44;;;;;;;;;45.00;37.75;;;;;15.99;90.49;100023.88;5080962;28;45367;-75
2023/04/22 06:30:10;;;;;;;;;40.00;35.00;;;;;16.16;88.94;100034.75;5080580;28;45239;-74
2023/04/22 06:32:36;;;;;;;;;41.25;36.00;;;;;16.24;89.94;100023.69;5080792;28;45405;-74
2023/04/22 06:35:01;;;;;;;;;39.00;34.00;;;;;16.30;89.62;100015.78;5081074;28;45332;-74
2023/04/22 06:37:27;;;;;;;;;41.25;36.50;;;;;16.17;89.22;100014.13;5079366;28;46413;-74
2023/04/22 06:39:52;;;;;;;;;48.00;38.50;;;;;16.24;89.92;100022.88;5062377;28;47417;-74
2023/04/22 06:42:17;;;;;;;;;47.75;38.75;;;;;16.43;89.59;100041.59;5080930;28;45320;-74
2023/04/22 06:44:46;;;;;;;;;44.00;36.50;;;;;16.44;89.69;100049.41;5080728;28;45276;-74
2023/04/22 06:47:11;;;;;;;;;40.00;35.50;;;;;16.35;90.40;100034.69;5067179;28;45507;-74
2023/04/22 06:49:38;;;;;;;;;43.25;36.75;;;;;16.51;90.45;100068.06;5041794;28;48410;-72
2023/04/22 06:52:04;;;;;;;;;42.00;34.75;;;;;16.50;91.11;100069.94;5041836;28;45346;-73
2023/04/22 06:54:30;;;;;;;;;42.50;36.75;;;;;16.50;91.85;100066.44;5060422;28;45466;-73
2023/04/22 06:56:56;;;;;;;;;39.50;34.50;;;;;16.58;91.94;100070.66;5060174;28;45354;-73
2023/04/22 06:59:21;;;;;;;;;45.75;38.50;;;;;16.54;92.22;100062.22;5059239;28;45701;-75
2023/04/22 07:01:47;;;;;;;;;44.75;38.00;;;;;16.67;92.59;100066.56;5059843;28;45334;-75
2023/04/22 07:04:12;;;;;;;;;46.50;38.50;;;;;16.58;92.24;100036.56;5060387;28;45664;-75
2023/04/22 07:06:37;;;;;;;;;46.00;39.00;;;;;16.64;92.53;100054.44;5058806;28;46203;-75
2023/04/22 07:09:03;;;;;;;;;41.50;36.00;;;;;16.77;92.67;100064.13;5059598;28;46637;-75
2023/04/22 07:11:30;;;;;;;;;44.00;38.00;;;;;16.76;93.33;100049.06;5060145;28;45327;-75
2023/04/22 07:13:55;;;;;;;;;42.00;35.33;;;;;16.72;93.95;100029.13;5060068;28;45415;-75
2023/04/22 07:16:21;;;;;;;;;39.33;34.33;;;;;16.76;93.52;100041.03;5059839;28;45534;-75
2023/04/22 07:18:46;;;;;;;;;45.25;38.25;;;;;16.72;93.66;100036.34;5058901;28;45906;-75
2023/04/22 07:21:11;;;;;;;;;44.75;38.00;;;;;16.82;94.15;100019.69;5059956;28;45493;-75
2023/04/22 07:23:37;;;;;;;;;40.00;34.67;;;;;16.94;94.68;100038.47;5060131;28;45469;-75
2023/04/22 07:26:03;;;;;;;;;37.00;34.00;;;;;16.94;94.40;100031.22;5059817;28;45322;-75
2023/04/22 07:28:28;;;;;;;;;39.00;34.33;;;;;17.06;94.73;100025.84;5061225;28;45407;-75
2023/04/22 07:30:54;;;;;;;;;39.33;33.00;;;;;17.06;95.82;100012.41;5079973;28;45312;-76
2023/04/22 07:33:19;;;;;;;;;38.33;34.00;;;;;17.18;95.53;100019.69;5080118;28;45311;-75
2023/04/22 07:35:44;;;;;;;;;35.00;32.33;;;;;17.22;95.65;100013.59;5078919;28;45464;-75
2023/04/22 07:38:10;;;;;;;;;38.67;33.33;;;;;17.34;96.45;100021.63;5079852;28;45764;-75
2023/04/22 07:40:35;;;;;;;;;38.00;33.33;;;;;17.44;96.10;100026.41;5080032;28;45359;-75
2023/04/22 07:43:00;;;;;;;;;38.33;34.00;;;;;17.48;96.56;100027.53;5079369;28;45506;-75
2023/04/22 07:45:26;;;;;;;;;40.33;34.33;;;;;17.36;93.80;100003.41;5079936;28;45300;-76
2023/04/22 07:47:51;;;;;;;;;29.00;29.00;;;;;17.56;97.41;100029.03;5079576;28;45478;-75
2023/04/22 07:50:16;;;;;;;;;36.67;32.67;;;;;17.50;96.71;100011.19;5079785;28;45272;-75
2023/04/22 07:52:45;;;;;;;;;35.67;32.00;;;;;17.63;98.62;100021.66;5061565;28;45361;-75
2023/04/22 07:55:10;;;;;;;;;30.33;30.00;;;;;17.66;96.74;100006.94;5080009;28;45502;-74
2023/04/22 07:57:37;;;;;;;;;30.00;28.33;;;;;17.63;99.00;100018.16;5079387;28;45329;-75
2023/04/22 08:00:07;;;;;;;;;32.00;30.00;;;;;17.72;99.46;100023.97;5079838;28;45292;-75
2023/04/22 08:02:33;;;;;;;;;30.67;30.00;;;;;17.82;99.32;100015.28;5079666;28;45327;-75
2023/04/22 08:04:58;;;;;;;;;31.33;29.67;;;;;17.85;100.00;100014.81;5079575;28;45347;-75
2023/04/22 08:07:24;;;;;;;;;28.33;27.67;;;;;17.84;100.00;100011.28;5079539;28;45262;-75
2023/04/22 08:09:50;;;;;;;;;28.00;27.00;;;;;17.98;100.00;100011.81;5061214;28;45320;-75
2023/04/22 08:12:16;;;;;;;;;30.67;29.33;;;;;17.97;100.00;100017.44;5079635;28;45335;-75
2023/04/22 08:14:41;;;;;;;;;31.67;30.00;;;;;17.99;100.00;100021.50;5079207;28;45303;-75
2023/04/22 08:17:06;;;;;;;;;27.00;27.00;;;;;18.10;100.00;100019.00;5079365;28;48098;-75
2023/04/22 08:19:32;;;;;;;;;27.67;24.67;;;;;18.11;100.00;100026.06;5072303;28;45500;-76
2023/04/22 08:21:58;;;;;;;;;26.33;26.33;;;;;18.02;100.00;100017.53;5079458;28;45271;-76
2023/04/22 08:24:24;;;;;;;;;24.33;24.33;;;;;18.03;100.00;100020.00;5079549;28;45670;-76
2023/04/22 08:26:50;;;;;;;;;23.00;23.00;;;;;18.00;100.00;100016.94;5079105;28;46360;-76
2023/04/22 08:29:15;;;;;;;;;24.00;23.00;;;;;18.16;100.00;100044.94;5077513;28;45372;-75
2023/04/22 08:31:41;;;;;;;;;23.67;21.67;;;;;18.21;100.00;100034.28;5082844;28;45450;-76
2023/04/22 08:34:06;;;;;;;;;19.00;18.67;;;;;18.25;100.00;100043.50;5082675;28;49130;-76
2023/04/22 08:36:32;;;;;;;;;20.33;20.33;;;;;18.27;100.00;100037.88;5082547;28;45255;-76
2023/04/22 08:38:57;;;;;;;;;19.67;19.33;;;;;18.30;100.00;100029.31;5082774;28;45265;-76
2023/04/22 08:41:25;;;;;;;;;19.67;19.67;;;;;18.29;100.00;100025.03;5083069;28;45875;-75
2023/04/22 08:43:54;;;;;;;;;22.67;21.67;;;;;18.30;100.00;100021.25;5082545;28;45412;-76
2023/04/22 08:46:22;;;;;;;;;19.67;19.00;;;;;18.42;100.00;100035.47;5081693;28;46376;-75
2023/04/22 08:48:48;;;;;;;;;21.00;20.00;;;;;18.44;100.00;100035.22;5081211;28;45286;-76
2023/04/22 08:51:15;;;;;;;;;16.00;15.33;;;;;18.49;100.00;100035.28;5081970;28;45439;-75
2023/04/22 08:53:42;;;;;;;;;19.00;19.00;;;;;18.52;100.00;100044.72;5082117;28;45377;-76
2023/04/22 08:56:09;;;;;;;;;17.67;17.33;;;;;18.63;100.00;100053.78;5081939;28;46217;-75
2023/04/22 08:58:35;;;;;;;;;20.33;20.33;;;;;18.63;100.00;100046.53;5081536;28;45375;-76
2023/04/22 09:01:01;;;;;;;;;18.67;18.67;;;;;18.66;100.00;100043.38;5082470;28;45288;-76
2023/04/22 09:03:28;;;;;;;;;19.33;19.33;;;;;18.65;100.00;100041.72;5081965;28;45271;-76
2023/04/22 09:05:54;;;;;;;;;14.33;14.33;;;;;18.70;100.00;100050.94;5082228;28;45354;-76
2023/04/22 09:08:20;;;;;;;;;17.33;17.00;;;;;18.70;100.00;100045.56;5082247;28;45848;-76
2023/04/22 09:10:46;;;;;;;;;17.33;17.33;;;;;18.69;100.00;100050.13;5082138;28;45340;-77
2023/04/22 09:13:13;;;;;;;;;20.67;18.67;;;;;18.68;100.00;100043.91;5081871;28;45443;-78
2023/04/22 09:15:38;;;;;;;;;18.33;17.67;;;;;18.68;100.00;100040.44;5081823;28;45350;-78
2023/04/22 09:18:04;;;;;;;;;19.00;18.00;;;;;18.88;100.00;100050.66;5082053;28;45375;-78
2023/04/22 09:20:30;;;;;;;;;19.00;17.33;;;;;18.79;100.00;100044.06;5082033;28;45352;-78
2023/04/22 09:23:00;;;;;;;;;19.67;18.00;;;;;18.90;100.00;100043.16;5078255;28;45477;-79
2023/04/22 09:25:26;;;;;;;;;25.67;23.67;;;;;18.96;100.00;100038.66;5081949;28;45378;-77
2023/04/22 09:27:57;;;;;;;;;19.00;17.33;;;;;19.10;100.00;100054.50;5081821;28;45347;-77
2023/04/22 09:30:28;;;;;;;;;18.67;18.67;;;;;19.09;100.00;100055.56;5081892;28;45327;-77
2023/04/22 09:32:55;;;;;;;;;20.33;18.67;;;;;19.21;100.00;100044.69;5081818;28;45365;-80
2023/04/22 09:35:30;;;;;;;;;16.67;16.33;;;;;19.29;100.00;100060.41;5081486;28;46417;-80
2023/04/22 09:38:01;;;;;;;;;24.00;22.00;;;;;19.22;100.00;100052.53;5081750;28;45280;-75
2023/04/22 09:40:28;;;;;;;;;22.00;20.00;;;;;19.37;100.00;100072.63;5063537;28;45368;-77
2023/04/22 09:42:57;;;;;;;;;18.67;18.00;;;;;19.38;100.00;100072.38;5080392;28;45422;-77
2023/04/22 09:45:28;;;;;;;;;16.67;16.67;;;;;19.49;100.00;100076.03;5081624;28;45337;-77
2023/04/22 09:47:55;;;;;;;;;17.33;17.33;;;;;19.45;100.00;100061.41;5062947;28;46032;-77
2023/04/22 09:50:23;;;;;;;;;17.00;17.00;;;;;19.60;100.00;100082.34;5062117;28;45432;-78
2023/04/22 09:53:00;;;;;;;;;21.67;21.67;;;;;19.61;100.00;100080.47;5075582;28;45807;-79
2023/04/22 09:55:27;;;;;;;;;18.67;18.33;;;;;19.55;100.00;100066.94;5080779;28;45411;-78
2023/04/22 09:57:55;;;;;;;;;19.67;19.67;;;;;19.68;100.00;100086.50;5081228;28;45431;-77
2023/04/22 10:00:24;;;;;;;;;22.33;22.00;;;;;19.66;100.00;100073.25;5081645;28;45300;-78
2023/04/22 10:02:49;;;;;;;;;24.67;22.33;;;;;19.77;100.00;100100.34;5081554;28;45224;-79
2023/04/22 10:05:15;;;;;;;;;25.00;23.33;;;;;19.75;100.00;100095.19;5068063;28;45311;-78
2023/04/22 10:07:42;;;;;;;;;24.00;23.00;;;;;19.84;100.00;100100.16;5061303;28;45332;-76
2023/04/22 10:10:08;;;;;;;;;22.67;21.67;;;;;19.86;100.00;100108.78;5061252;28;45315;-78
2023/04/22 10:12:34;;;;;;;;;22.67;21.33;;;;;19.88;100.00;100104.78;5060725;28;45649;-79
2023/04/22 10:15:00;;;;;;;;;20.33;20.33;;;;;19.95;100.00;100107.28;5042714;28;47021;-79
2023/04/22 10:17:30;;;;;;;;;25.33;23.67;;;;;20.06;100.00;100086.66;5060837;28;45301;-78
2023/04/22 10:19:57;;;;;;;;;24.33;24.33;;;;;20.12;100.00;100101.84;5042787;28;45406;-78
2023/04/22 10:22:23;;;;;;;;;23.33;21.67;;;;;20.08;100.00;100091.81;5061101;28;45710;-81
2023/04/22 10:24:49;;;;;;;;;28.67;25.67;;;;;20.12;100.00;100101.84;5061132;28;45621;-80
2023/04/22 10:27:21;;;;;;;;;28.67;28.00;;;;;19.86;100.00;100092.63;5061115;28;45337;-80
2023/04/22 10:29:46;;;;;;;;;25.00;24.67;;;;;19.81;100.00;100104.97;5073644;28;45316;-79
2023/04/22 10:32:17;;;;;;;;;23.33;23.33;;;;;19.80;100.00;100099.84;5085150;28;45363;-78
2023/04/22 10:34:45;;;;;;;;;24.67;24.33;;;;;19.76;100.00;100102.22;5082850;28;45318;-80
2023/04/22 10:37:13;;;;;;;;;21.00;21.00;;;;;19.99;100.00;100107.59;5083569;28;45389;-80
2023/04/22 10:39:41;;;;;;;;;34.67;32.00;;;;;20.11;100.00;100115.59;5081065;28;45403;-81
2023/04/22 10:42:10;;;;;;;;;30.67;29.67;;;;;20.16;100.00;100110.22;5081372;28;45423;-78
2023/04/22 10:44:46;;;;;;;;;28.00;27.67;;;;;20.24;100.00;100125.97;5080592;28;45538;-82
2023/04/22 10:47:33;;;;;;;;;30.67;28.67;;;;;20.29;100.00;100125.19;5083067;28;45473;-79
2023/04/22 10:50:23;;;;;;;;;31.67;29.00;;;;;20.31;100.00;100125.75;5064141;28;45527;-79
2023/04/22 10:52:57;;;;;;;;;33.33;30.67;;;;;20.37;100.00;100135.53;5082450;28;45494;-77
2023/04/22 10:55:23;;;;;;;;;33.33;30.33;;;;;20.29;100.00;100127.88;5074456;28;46000;-77
2023/04/22 10:57:51;;;;;;;;;31.33;29.00;;;;;20.30;100.00;100143.81;5074081;28;45254;-79
2023/04/22 11:00:30;;;;;;;;;31.33;29.33;;;;;20.25;100.00;100148.34;5077610;27;45352;-79
2023/04/22 11:03:10;;;;;;;;;32.00;30.33;;;;;20.27;100.00;100157.84;5076622;28;45324;-77